Time;durP1;ratioP1;P1;durP2;ratioP2;P2;SDS_P1;SDS_P2;PMS_P1;PMS_P2;Temp;Humidity;BMP_temperature;BMP_pressure;BME280_temperature;BME280_humidity;BME280_pressure;Samples;Min_cycle;Max_cycle;Signal;HPM_P1;HPM_P2
2021/09/13 00:02:04;;;;;;;5.53;4.83;;;;;;;15.59;100.00;98338.13;5144410;27;20710;-66
2021/09/13 00:04:30;;;;;;;5.73;5.20;;;;;;;15.65;100.00;98332.28;5146124;27;20244;-66
2021/09/13 00:06:57;;;;;;;6.17;5.17;;;;;;;15.74;100.00;98334.13;5148812;27;20223;-66
2021/09/13 00:09:24;;;;;;;5.70;4.93;;;;;;;15.74;100.00;98327.00;5148161;27;20216;-66
2021/09/13 00:11:50;;;;;;;5.40;4.90;;;;;;;15.73;100.00;98329.78;5138624;27;20215;-66
2021/09/13 00:14:18;;;;;;;5.60;4.93;;;;;;;15.73;100.00;98321.78;5143930;27;20212;-66
2021/09/13 00:16:45;;;;;;;5.30;4.80;;;;;;;15.73;100.00;98329.78;5148727;27;20232;-66
2021/09/13 00:19:11;;;;;;;5.83;5.20;;;;;;;15.60;100.00;98326.50;5149830;27;20217;-66
2021/09/13 00:21:38;;;;;;;5.73;4.97;;;;;;;15.48;100.00;98322.22;5144198;27;20205;-66
2021/09/13 00:24:05;;;;;;;5.30;4.80;;;;;;;15.38;100.00;98313.31;5144845;27;20706;-66
2021/09/13 00:26:31;;;;;;;5.90;5.33;;;;;;;15.30;100.00;98315.78;5148124;27;20255;-66
2021/09/13 00:28:58;;;;;;;5.73;4.80;;;;;;;15.21;100.00;98320.06;5148433;27;20213;-67
2021/09/13 00:31:26;;;;;;;4.90;4.50;;;;;;;15.14;100.00;98326.00;5145777;27;20579;-67
2021/09/13 00:33:52;;;;;;;5.83;4.83;;;;;;;15.05;100.00;98316.16;5153491;27;20216;-66
2021/09/13 00:36:19;;;;;;;5.30;4.80;;;;;;;14.99;100.00;98319.34;5148251;27;20215;-66
2021/09/13 00:38:45;;;;;;;5.20;4.70;;;;;;;14.92;100.00;98323.50;5148343;27;20584;-66
2021/09/13 00:41:12;;;;;;;5.47;4.67;;;;;;;14.89;100.00;98315.75;5142810;27;20209;-66
2021/09/13 00:43:38;;;;;;;5.47;4.83;;;;;;;14.87;100.00;98312.38;5143953;27;20232;-66
2021/09/13 00:46:05;;;;;;;5.40;4.67;;;;;;;14.85;100.00;98314.34;5141515;27;20216;-66
2021/09/13 00:48:33;;;;;;;6.07;5.33;;;;;;;14.83;100.00;98313.59;5147862;27;20237;-66
2021/09/13 00:50:59;;;;;;;5.73;5.17;;;;;;;14.79;100.00;98315.66;5144520;27;20220;-66
2021/09/13 00:53:26;;;;;;;5.40;4.90;;;;;;;14.77;100.00;98314.09;5149421;27;20208;-66
2021/09/13 00:55:53;;;;;;;5.47;4.97;;;;;;;14.67;100.00;98315.84;5152961;27;20209;-66
2021/09/13 00:58:20;;;;;;;5.83;5.33;;;;;;;14.68;100.00;98306.91;5151416;27;20214;-66
2021/09/13 01:00:47;;;;;;;6.07;5.47;;;;;;;14.62;100.00;98307.41;5147395;27;20216;-66
2021/09/13 01:03:13;;;;;;;5.53;5.03;;;;;;;14.58;100.00;98312.13;5154967;27;20246;-66
2021/09/13 01:05:41;;;;;;;5.27;4.77;;;;;;;14.56;100.00;98313.22;5147065;27;20682;-66
2021/09/13 01:08:08;;;;;;;5.10;4.60;;;;;;;14.52;100.00;98322.41;5146197;27;20674;-66
2021/09/13 01:10:34;;;;;;;5.37;4.67;;;;;;;14.45;100.00;98318.56;5153188;27;20219;-66
2021/09/13 01:13:01;;;;;;;6.10;4.90;;;;;;;14.43;100.00;98323.19;5142520;27;20212;-66
2021/09/13 01:15:27;;;;;;;5.97;5.37;;;;;;;14.40;100.00;98315.44;5145653;27;20218;-66
2021/09/13 01:17:54;;;;;;;5.43;4.90;;;;;;;14.37;100.00;98308.56;5147455;27;20218;-66
2021/09/13 01:20:22;;;;;;;5.47;4.97;;;;;;;14.32;100.00;98309.91;5145445;27;20211;-66
2021/09/13 01:22:54;;;;;;;6.10;5.00;;;;;;;14.26;100.00;98310.41;5143261;27;20759;-66
2021/09/13 01:25:22;;;;;;;5.60;4.97;;;;;;;14.21;100.00;98312.59;5146368;27;20243;-66
2021/09/13 01:27:48;;;;;;;5.10;4.70;;;;;;;14.16;100.00;98314.75;5147300;27;20212;-66
2021/09/13 01:30:15;;;;;;;5.67;5.17;;;;;;;14.13;100.00;98309.69;5144455;27;20218;-66
2021/09/13 01:32:41;;;;;;;6.00;5.03;;;;;;;14.08;100.00;98309.22;5141854;27;20228;-66
2021/09/13 01:35:09;;;;;;;5.50;5.00;;;;;;;14.05;100.00;98307.63;5146463;27;20218;-66
2021/09/13 01:37:35;;;;;;;5.43;4.93;;;;;;;14.06;100.00;98308.50;5147526;27;20224;-66
2021/09/13 01:40:02;;;;;;;5.57;5.03;;;;;;;14.07;100.00;98304.88;5144711;27;20215;-66
2021/09/13 01:42:30;;;;;;;5.90;5.30;;;;;;;14.03;100.00;98314.03;5143402;27;20207;-66
2021/09/13 01:44:56;;;;;;;5.47;4.97;;;;;;;14.01;100.00;98310.66;5145682;27;20242;-66
2021/09/13 01:47:23;;;;;;;6.00;5.00;;;;;;;13.99;100.00;98302.81;5146848;27;20586;-66
2021/09/13 01:49:49;;;;;;;5.73;4.87;;;;;;;13.97;100.00;98303.91;5146992;27;20215;-66
2021/09/13 01:52:16;;;;;;;6.20;5.10;;;;;;;13.94;100.00;98302.34;5142398;27;20213;-66
2021/09/13 01:54:42;;;;;;;6.27;5.50;;;;;;;13.88;100.00;98299.34;5142925;27;20209;-66
2021/09/13 01:57:09;;;;;;;6.10;5.50;;;;;;;13.88;100.00;98299.34;5142732;27;20217;-66
2021/09/13 01:59:36;;;;;;;5.67;5.07;;;;;;;13.88;100.00;98291.38;5145478;27;20234;-66
2021/09/13 02:02:03;;;;;;;5.93;5.33;;;;;;;13.84;100.00;98293.44;5142724;27;20246;-66
2021/09/13 02:04:30;;;;;;;5.57;5.07;;;;;;;13.84;100.00;98288.13;5144218;27;20247;-66
2021/09/13 02:06:57;;;;;;;5.73;5.13;;;;;;;13.82;100.00;98283.88;5146751;27;20215;-66
2021/09/13 02:09:23;;;;;;;5.87;5.33;;;;;;;13.83;100.00;98282.91;5145737;27;20213;-66
2021/09/13 02:11:50;;;;;;;5.87;5.27;;;;;;;13.81;100.00;98287.50;5142658;27;20207;-66
2021/09/13 02:14:16;;;;;;;6.37;5.60;;;;;;;13.79;100.00;98284.13;5143703;27;20218;-66
2021/09/13 02:16:44;;;;;;;5.03;4.50;;;;;;;13.80;100.00;98286.66;5146770;27;20221;-66
2021/09/13 02:19:10;;;;;;;5.97;5.43;;;;;;;13.82;100.00;98290.03;5146051;27;20210;-66
2021/09/13 02:21:37;;;;;;;6.40;5.80;;;;;;;13.84;100.00;98281.94;5142548;27;20689;-66
2021/09/13 02:24:04;;;;;;;6.47;5.87;;;;;;;13.81;100.00;98282.19;5143119;27;20241;-66
2021/09/13 02:26:31;;;;;;;6.33;5.73;;;;;;;13.77;100.00;98278.94;5148085;27;20216;-67
2021/09/13 02:28:57;;;;;;;6.37;5.77;;;;;;;13.73;100.00;98285.47;5150653;27;20225;-66
2021/09/13 02:31:24;;;;;;;6.33;5.73;;;;;;;13.71;100.00;98275.91;5146600;27;20219;-66
2021/09/13 02:33:51;;;;;;;5.57;5.07;;;;;;;13.72;100.00;98285.56;5146811;27;20677;-66
2021/09/13 02:36:18;;;;;;;6.10;5.47;;;;;;;13.70;100.00;98283.03;5150471;27;20220;-66
2021/09/13 02:38:44;;;;;;;8.50;5.60;;;;;;;13.71;100.00;98286.53;5150645;27;20209;-66
2021/09/13 02:41:11;;;;;;;7.17;6.07;;;;;;;13.82;100.00;98286.53;5146816;27;20285;-66
2021/09/13 02:43:37;;;;;;;6.50;5.80;;;;;;;13.79;100.00;98292.09;5146441;27;20223;-66
2021/09/13 02:46:04;;;;;;;6.23;5.60;;;;;;;13.63;100.00;98287.13;5144096;27;20247;-66
2021/09/13 02:48:30;;;;;;;7.03;6.30;;;;;;;13.52;100.00;98287.13;5150335;27;20213;-66
2021/09/13 02:50:58;;;;;;;6.87;5.93;;;;;;;13.48;100.00;98284.84;5145465;27;20688;-66
2021/09/13 02:53:25;;;;;;;6.07;5.47;;;;;;;13.50;100.00;98283.75;5151917;27;20585;-66
2021/09/13 02:55:51;;;;;;;6.20;5.60;;;;;;;13.54;100.00;98281.72;5155192;27;20209;-66
2021/09/13 02:58:18;;;;;;;6.40;5.53;;;;;;;13.52;100.00;98281.00;5154098;27;20210;-66
2021/09/13 03:00:44;;;;;;;6.17;5.57;;;;;;;13.54;100.00;98273.75;5153994;27;20208;-66
2021/09/13 03:03:11;;;;;;;6.50;5.90;;;;;;;13.52;100.00;98279.16;5155019;27;20235;-66
2021/09/13 03:05:37;;;;;;;5.93;5.30;;;;;;;13.48;100.00;98284.84;5148087;27;20248;-66
2021/09/13 03:08:06;;;;;;;5.70;5.03;;;;;;;13.48;100.00;98285.72;5149803;27;20213;-66
2021/09/13 03:10:33;;;;;;;5.87;5.20;;;;;;;13.49;100.00;98278.56;5147196;27;20215;-66
2021/09/13 03:12:59;;;;;;;6.20;5.47;;;;;;;13.48;100.00;98276.88;5145869;27;20222;-66
2021/09/13 03:15:26;;;;;;;6.17;5.57;;;;;;;13.48;100.00;98274.22;5148756;27;20210;-66
2021/09/13 03:17:52;;;;;;;6.57;5.97;;;;;;;13.47;100.00;98275.19;5147897;27;20205;-66
2021/09/13 03:20:19;;;;;;;6.77;5.57;;;;;;;13.47;100.00;98283.16;5147827;27;20602;-66
2021/09/13 03:22:46;;;;;;;6.47;4.90;;;;;;;13.43;100.00;98285.22;5145940;27;20594;-66
2021/09/13 03:25:13;;;;;;;6.37;5.73;;;;;;;13.43;100.00;98271.06;5147732;27;20724;-66
2021/09/13 03:27:40;;;;;;;5.80;5.20;;;;;;;13.42;100.00;98277.34;5149445;27;20213;-66
2021/09/13 03:30:08;;;;;;;5.87;5.37;;;;;;;13.43;100.00;98276.38;5147716;27;20215;-66
2021/09/13 03:32:35;;;;;;;5.67;5.10;;;;;;;13.44;100.00;98270.13;5145716;27;20217;-66
2021/09/13 03:35:01;;;;;;;7.83;5.47;;;;;;;13.44;100.00;98273.63;5147524;27;20217;-66
2021/09/13 03:37:28;;;;;;;6.43;5.63;;;;;;;13.48;100.00;98268.91;5148811;27;20575;-66
2021/09/13 03:39:54;;;;;;;6.20;5.60;;;;;;;13.54;100.00;98274.59;5147275;27;20581;-66
2021/09/13 03:42:22;;;;;;;5.97;5.37;;;;;;;13.58;100.00;98280.50;5145390;27;20207;-66
2021/09/13 03:44:48;;;;;;;8.50;5.80;;;;;;;13.66;100.00;98278.09;5145204;27;20234;-66
2021/09/13 03:47:15;;;;;;;6.60;5.90;;;;;;;13.77;100.00;98270.13;5149323;27;20220;-66
2021/09/13 03:49:41;;;;;;;7.80;6.13;;;;;;;13.85;100.00;98280.97;5148248;27;20214;-66
2021/09/13 03:52:08;;;;;;;7.20;5.90;;;;;;;13.92;100.00;98272.38;5145206;27;20291;-66
2021/09/13 03:54:35;;;;;;;6.27;5.67;;;;;;;13.97;100.00;98274.66;5144788;27;20300;-66
2021/09/13 03:57:02;;;;;;;6.00;5.40;;;;;;;14.03;100.00;98279.50;5144396;27;20270;-66
2021/09/13 03:59:30;;;;;;;6.83;5.70;;;;;;;14.07;100.00;98275.63;5148513;27;20211;-66
2021/09/13 04:01:57;;;;;;;6.07;5.40;;;;;;;14.06;100.00;98271.28;5144979;27;20588;-66
2021/09/13 04:04:26;;;;;;;6.03;5.43;;;;;;;14.04;100.00;98270.53;5145929;27;20263;-66
2021/09/13 04:06:54;;;;;;;6.13;5.57;;;;;;;13.98;100.00;98266.59;5148898;27;20214;-66
2021/09/13 04:09:47;;;;;;;6.00;5.40;;;;;;;13.93;100.00;98274.06;5147244;27;20214;-66
2021/09/13 04:12:13;;;;;;;6.27;5.50;;;;;;;13.86;100.00;98264.06;5145411;27;20215;-66
2021/09/13 04:14:41;;;;;;;6.87;5.97;;;;;;;13.82;100.00;98265.28;5148755;27;20214;-66
2021/09/13 04:17:07;;;;;;;6.20;5.60;;;;;;;13.78;100.00;98259.38;5148265;27;20208;-66
2021/09/13 04:19:35;;;;;;;6.10;5.50;;;;;;;13.70;100.00;98252.97;5145789;27;20689;-66
2021/09/13 04:22:02;;;;;;;7.83;4.80;;;;;;;13.63;100.00;98255.28;5153372;27;20579;-66
2021/09/13 04:24:28;;;;;;;6.33;5.03;;;;;;;13.57;100.00;98257.59;5153232;27;20664;-66
2021/09/13 04:26:55;;;;;;;6.43;5.57;;;;;;;13.52;100.00;98254.44;5150758;27;20664;-66
2021/09/13 04:29:21;;;;;;;6.13;5.53;;;;;;;13.46;100.00;98265.53;5153229;27;20210;-66
2021/09/13 04:31:49;;;;;;;7.03;5.37;;;;;;;13.46;100.00;98258.41;5153593;27;20215;-66
2021/09/13 04:34:16;;;;;;;7.90;5.67;;;;;;;13.44;100.00;98256.88;5153528;27;20218;-66
2021/09/13 04:36:42;;;;;;;5.80;5.30;;;;;;;13.42;100.00;98264.09;5149782;27;20207;-66
2021/09/13 04:39:09;;;;;;;7.53;5.23;;;;;;;13.40;100.00;98261.56;5152835;27;20211;-65
2021/09/13 04:41:36;;;;;;;6.60;5.30;;;;;;;13.40;100.00;98258.06;5152973;27;20225;-65
2021/09/13 04:44:02;;;;;;;5.50;5.00;;;;;;;13.40;100.00;98252.75;5153258;27;20214;-66
2021/09/13 04:46:29;;;;;;;6.07;5.47;;;;;;;13.39;100.00;98257.19;5151466;27;20245;-66
2021/09/13 04:48:57;;;;;;;5.97;5.37;;;;;;;13.44;100.00;98262.19;5152051;27;20212;-66
2021/09/13 04:51:23;;;;;;;5.93;5.33;;;;;;;13.54;100.00;98265.78;5153014;27;20677;-66
2021/09/13 04:53:50;;;;;;;6.63;5.73;;;;;;;13.55;100.00;98259.50;5146383;27;20207;-66
2021/09/13 04:56:16;;;;;;;5.83;5.23;;;;;;;13.63;100.00;98262.41;5147809;27;20209;-66
2021/09/13 04:58:43;;;;;;;6.23;5.60;;;;;;;13.73;100.00;98258.91;5145324;27;20224;-66
2021/09/13 05:01:09;;;;;;;5.63;5.03;;;;;;;13.81;100.00;98263.59;5143602;27;20211;-66
2021/09/13 05:03:36;;;;;;;5.33;4.83;;;;;;;13.88;100.00;98267.47;5145333;27;20260;-66
2021/09/13 05:06:04;;;;;;;5.43;4.93;;;;;;;13.90;100.00;98274.34;5147771;27;20247;-65
2021/09/13 05:08:31;;;;;;;5.67;5.17;;;;;;;13.95;100.00;98263.34;5147051;27;20215;-66
2021/09/13 05:10:57;;;;;;;6.23;4.90;;;;;;;13.98;100.00;98268.38;5143781;27;20219;-66
2021/09/13 05:13:24;;;;;;;5.70;5.10;;;;;;;14.01;100.00;98268.16;5146257;27;20214;-65
2021/09/13 05:15:50;;;;;;;5.20;4.70;;;;;;;14.04;100.00;98267.88;5147161;27;20208;-66
2021/09/13 05:18:17;;;;;;;5.27;4.77;;;;;;;14.09;100.00;98266.56;5145416;27;20216;-66
2021/09/13 05:20:43;;;;;;;5.33;4.83;;;;;;;14.14;100.00;98274.16;5143276;27;20300;-65
2021/09/13 05:23:11;;;;;;;5.20;4.70;;;;;;;14.17;100.00;98277.41;5145139;27;20693;-66
2021/09/13 05:25:38;;;;;;;5.33;4.83;;;;;;;14.21;100.00;98278.91;5147484;27;20236;-66
2021/09/13 05:28:05;;;;;;;4.63;4.23;;;;;;;14.25;100.00;98271.50;5144083;27;20213;-66
2021/09/13 05:30:31;;;;;;;5.57;5.00;;;;;;;14.23;100.00;98273.47;5143035;27;20216;-66
2021/09/13 05:32:57;;;;;;;5.00;4.60;;;;;;;14.28;100.00;98271.25;5144892;27;20211;-66
2021/09/13 05:35:24;;;;;;;5.60;4.90;;;;;;;14.27;100.00;98280.19;5150144;27;20292;-66
2021/09/13 05:37:50;;;;;;;6.20;5.20;;;;;;;14.27;100.00;98280.19;5149215;27;20215;-66
2021/09/13 05:40:18;;;;;;;4.83;4.43;;;;;;;14.21;100.00;98291.31;5151920;27;20694;-66
2021/09/13 05:42:45;;;;;;;5.60;5.00;;;;;;;14.22;100.00;98290.34;5152220;27;20237;-66
2021/09/13 05:45:12;;;;;;;5.33;4.83;;;;;;;14.25;100.00;98284.81;5152042;27;20256;-65
2021/09/13 05:47:38;;;;;;;5.37;4.83;;;;;;;14.32;100.00;98288.66;5148985;27;20221;-66
2021/09/13 05:50:06;;;;;;;6.67;4.40;;;;;;;14.38;100.00;98286.34;5152110;27;20218;-66
2021/09/13 05:52:32;;;;;;;5.17;4.67;;;;;;;14.44;100.00;98298.28;5151021;27;20215;-66
2021/09/13 05:54:59;;;;;;;5.63;4.77;;;;;;;14.47;100.00;98295.34;5140218;27;20214;-66
2021/09/13 05:57:26;;;;;;;5.80;4.27;;;;;;;14.46;100.00;98293.66;5145596;27;20569;-66
2021/09/13 05:59:53;;;;;;;4.90;4.50;;;;;;;14.42;100.00;98302.88;5142452;27;20212;-67
2021/09/13 06:02:19;;;;;;;5.13;4.63;;;;;;;14.41;100.00;98293.19;5143374;27;20238;-66
2021/09/13 06:04:46;;;;;;;6.90;4.93;;;;;;;14.41;100.00;98293.19;5146958;27;20219;-66
2021/09/13 06:07:13;;;;;;;6.57;4.93;;;;;;;14.43;100.00;98292.09;5146322;27;20727;-66
2021/09/13 06:09:40;;;;;;;5.30;4.80;;;;;;;14.49;100.00;98296.91;5142892;27;20215;-66
2021/09/13 06:12:09;;;;;;;5.87;4.83;;;;;;;14.48;100.00;98302.38;5143039;27;20222;-66
2021/09/13 06:14:37;;;;;;;5.70;5.10;;;;;;;14.48;100.00;98300.56;5146735;27;20218;-66
2021/09/13 06:17:03;;;;;;;5.30;4.80;;;;;;;14.45;100.00;98297.31;5146676;27;20658;-66
2021/09/13 06:19:30;;;;;;;7.43;4.83;;;;;;;14.46;100.00;98293.66;5144094;27;20219;-66
2021/09/13 06:21:56;;;;;;;5.43;4.73;;;;;;;14.45;100.00;98294.66;5140916;27;20215;-66
2021/09/13 06:24:23;;;;;;;6.03;5.03;;;;;;;14.44;100.00;98293.81;5146630;27;20221;-66
2021/09/13 06:26:49;;;;;;;5.13;4.47;;;;;;;14.44;100.00;98306.25;5146222;27;20234;-66
2021/09/13 06:29:16;;;;;;;5.43;4.60;;;;;;;14.42;100.00;98308.22;5143340;27;20216;-66
2021/09/13 06:31:44;;;;;;;4.70;4.30;;;;;;;14.40;100.00;98302.16;5142790;27;20210;-66
2021/09/13 06:34:15;;;;;;;5.57;5.00;;;;;;;14.41;100.00;98314.47;5146511;27;20226;-66
2021/09/13 06:36:43;;;;;;;5.77;5.10;;;;;;;14.43;100.00;98307.22;5146487;27;20625;-66
2021/09/13 06:39:10;;;;;;;6.37;5.77;;;;;;;14.55;100.00;98303.56;5142302;27;20623;-66
2021/09/13 06:41:36;;;;;;;6.30;5.63;;;;;;;14.64;100.00;98308.97;5142683;27;20267;-66
2021/09/13 06:44:04;;;;;;;5.43;4.87;;;;;;;14.71;100.00;98303.97;5146292;27;20213;-66
2021/09/13 06:46:41;;;;;;;6.03;5.37;;;;;;;14.77;100.00;98308.78;5145838;27;20238;-66
2021/09/13 06:49:10;;;;;;;5.90;5.30;;;;;;;14.87;100.00;98309.72;5144223;27;20215;-66
2021/09/13 06:51:37;;;;;;;5.43;4.90;;;;;;;15.00;100.00;98315.69;5145335;27;20220;-66
2021/09/13 06:54:03;;;;;;;6.50;5.77;;;;;;;15.12;100.00;98314.66;5153437;27;20212;-66
2021/09/13 06:56:30;;;;;;;6.00;5.40;;;;;;;15.27;100.00;98308.88;5148732;27;20212;-66
2021/09/13 06:58:56;;;;;;;5.97;5.30;;;;;;;15.42;100.00;98314.75;5151555;27;20571;-66
2021/09/13 07:01:23;;;;;;;5.67;5.17;;;;;;;15.60;100.00;98315.84;5148965;27;20219;-65
2021/09/13 07:03:56;;;;;;;5.60;5.10;;;;;;;15.78;100.00;98317.75;5149190;27;20246;-65
2021/09/13 07:06:25;;;;;;;6.77;4.93;;;;;;;15.98;100.00;98312.34;5142562;27;20242;-65
2021/09/13 07:08:52;;;;;;;5.83;4.93;;;;;;;16.18;100.00;98315.94;5141439;27;20235;-65
2021/09/13 07:11:18;;;;;;;5.40;4.90;;;;;;;16.35;100.00;98315.28;5144815;27;20557;-67
2021/09/13 07:13:45;;;;;;;6.13;4.43;;;;;;;16.52;100.00;98318.13;5149618;27;20218;-65
2021/09/13 07:16:11;;;;;;;5.27;4.77;;;;;;;16.66;100.00;98317.75;5152107;27;20219;-67
2021/09/13 07:18:38;;;;;;;9.00;4.90;;;;;;;16.80;100.00;98320.00;5142406;27;20216;-66
2021/09/13 07:21:04;;;;;;;5.47;4.70;;;;;;;16.87;100.00;98315.78;5154950;27;20213;-66
2021/09/13 07:23:32;;;;;;;4.80;4.40;;;;;;;17.00;100.00;98315.50;5156386;27;20209;-66
2021/09/13 07:25:58;;;;;;;5.27;4.10;;;;;;;17.04;100.00;98323.09;5155743;27;20228;-66
2021/09/13 07:28:25;;;;;;;6.50;4.77;;;;;;;17.12;100.00;98323.22;5156149;27;20215;-66
2021/09/13 07:30:51;;;;;;;6.80;4.73;;;;;;;17.21;100.00;98317.03;5154831;27;20215;-65
2021/09/13 07:33:18;;;;;;;5.70;4.83;;;;;;;17.28;100.00;98325.31;5156062;27;20212;-65
2021/09/13 07:35:44;;;;;;;5.93;5.33;;;;;;;17.35;100.00;98321.94;5155814;27;20224;-65
2021/09/13 07:38:11;;;;;;;5.97;5.33;;;;;;;17.44;100.00;98326.44;5155970;27;20213;-66
2021/09/13 07:40:39;;;;;;;5.03;4.47;;;;;;;17.55;100.00;98328.13;5152925;27;20246;-66
2021/09/13 07:43:06;;;;;;;5.87;5.30;;;;;;;17.64;100.00;98328.09;5155530;27;20216;-66
2021/09/13 07:45:32;;;;;;;5.07;4.60;;;;;;;17.71;100.00;98334.53;5155826;27;20209;-65
2021/09/13 07:47:59;;;;;;;6.43;5.50;;;;;;;17.75;100.00;98333.25;5155813;27;20220;-66
2021/09/13 07:50:25;;;;;;;6.57;5.60;;;;;;;17.80;100.00;98333.66;5154703;27;20205;-66
2021/09/13 07:52:52;;;;;;;6.57;5.33;;;;;;;17.89;100.00;98338.13;5142168;27;20233;-66
2021/09/13 07:55:18;;;;;;;6.10;5.33;;;;;;;18.01;100.00;98346.81;5137716;27;20209;-66
2021/09/13 07:57:46;;;;;;;6.10;5.60;;;;;;;18.16;100.00;98343.50;5153974;27;20209;-66
2021/09/13 08:00:14;;;;;;;6.63;5.47;;;;;;;18.30;100.00;98353.72;5154891;27;20220;-67
2021/09/13 08:02:40;;;;;;;8.30;5.53;;;;;;;18.44;100.00;98350.59;5154918;27;20237;-66
2021/09/13 08:05:08;;;;;;;6.27;5.57;;;;;;;18.51;100.00;98356.16;5155511;27;20208;-66
2021/09/13 08:07:34;;;;;;;6.93;5.77;;;;;;;18.58;100.00;98352.75;5153446;27;20243;-67
2021/09/13 08:10:01;;;;;;;6.70;6.03;;;;;;;18.72;100.00;98349.56;5155014;27;20215;-66
2021/09/13 08:12:27;;;;;;;6.80;5.80;;;;;;;18.81;96.94;98354.00;5154548;27;20699;-67
2021/09/13 08:14:55;;;;;;;5.73;5.13;;;;;;;18.80;97.05;98357.69;5155242;27;20223;-67
2021/09/13 08:17:22;;;;;;;5.80;5.20;;;;;;;18.85;96.88;98352.72;5155235;27;20243;-67
2021/09/13 08:19:48;;;;;;;7.00;5.30;;;;;;;18.94;96.44;98359.84;5154748;27;20220;-67
2021/09/13 08:22:15;;;;;;;5.37;4.87;;;;;;;18.99;93.95;98357.53;5153785;27;20689;-67
2021/09/13 08:24:41;;;;;;;5.60;5.10;;;;;;;19.06;93.52;98358.63;5154688;27;20216;-66
2021/09/13 08:27:08;;;;;;;5.33;4.83;;;;;;;19.09;94.42;98363.66;5146032;27;20241;-66
2021/09/13 08:29:34;;;;;;;5.60;5.10;;;;;;;19.21;93.71;98362.44;5155125;27;20220;-66
2021/09/13 08:32:02;;;;;;;4.90;4.50;;;;;;;19.32;93.51;98356.03;5151536;27;20213;-67
2021/09/13 08:34:29;;;;;;;5.37;4.80;;;;;;;19.38;93.03;98358.91;5154759;27;20209;-67
2021/09/13 08:36:56;;;;;;;5.07;4.53;;;;;;;19.49;93.59;98360.50;5155041;27;20219;-66
2021/09/13 08:39:22;;;;;;;4.97;4.30;;;;;;;19.61;93.01;98360.13;5154677;27;20205;-66
2021/09/13 08:41:49;;;;;;;4.73;4.30;;;;;;;19.68;91.61;98355.81;5153471;27;20232;-67
2021/09/13 08:44:16;;;;;;;4.33;3.93;;;;;;;19.76;91.66;98357.72;5154727;27;20208;-67
2021/09/13 08:46:47;;;;;;;4.33;3.67;;;;;;;19.81;89.64;98361.59;5154535;27;20241;-66
2021/09/13 08:49:26;;;;;;;3.60;3.30;;;;;;;19.89;89.87;98367.03;5154737;27;20220;-67
2021/09/13 08:51:53;;;;;;;3.70;2.90;;;;;;;20.02;86.88;98358.53;5144917;27;20550;-67
2021/09/13 08:54:20;;;;;;;3.60;3.30;;;;;;;20.10;86.05;98356.78;5150068;27;20201;-66
2021/09/13 08:56:52;;;;;;;3.67;3.33;;;;;;;20.24;85.98;98360.72;5147349;27;20223;-67
2021/09/13 08:59:22;;;;;;;3.67;3.20;;;;;;;20.37;84.78;98353.03;5146102;27;20640;-66
2021/09/13 09:01:50;;;;;;;3.93;3.63;;;;;;;20.34;83.59;98359.56;5149638;27;20544;-67
2021/09/13 09:04:19;;;;;;;3.50;3.03;;;;;;;20.42;81.99;98358.78;5149856;27;20212;-67
2021/09/13 09:06:48;;;;;;;3.40;3.10;;;;;;;20.52;80.35;98371.06;5145637;27;20726;-66
2021/09/13 09:09:16;;;;;;;6.13;3.03;;;;;;;20.56;79.91;98369.75;5148286;27;20216;-66
2021/09/13 09:12:00;;;;;;;3.10;2.80;;;;;;;20.69;80.18;98362.06;5149465;27;20220;-66
2021/09/13 09:14:33;;;;;;;3.60;3.30;;;;;;;20.84;80.68;98370.34;5147472;27;20208;-66
2021/09/13 09:17:02;;;;;;;3.70;3.40;;;;;;;20.97;79.54;98360.81;5147286;27;20221;-66
2021/09/13 09:19:30;;;;;;;3.53;3.23;;;;;;;21.06;79.27;98362.50;5149487;27;20210;-66
2021/09/13 09:21:58;;;;;;;4.53;3.27;;;;;;;21.04;78.26;98361.81;5149589;27;20216;-66
2021/09/13 09:24:27;;;;;;;4.07;3.67;;;;;;;21.13;79.96;98363.53;5144390;27;20208;-66
2021/09/13 09:27:02;;;;;;;4.00;3.40;;;;;;;21.20;78.37;98361.00;5147270;27;20676;-66
2021/09/13 09:29:29;;;;;;;4.00;3.60;;;;;;;21.26;79.08;98357.63;5149231;27;20220;-66
2021/09/13 09:31:58;;;;;;;3.73;3.43;;;;;;;21.35;79.40;98351.28;5148795;27;20670;-67
2021/09/13 09:34:26;;;;;;;5.70;4.03;;;;;;;21.48;78.40;98354.28;5144669;27;20261;-66
2021/09/13 09:37:06;;;;;;;4.20;3.80;;;;;;;21.48;78.74;98351.59;5143833;27;20583;-67
2021/09/13 09:39:35;;;;;;;4.30;3.90;;;;;;;21.57;77.92;98348.75;5141265;27;20231;-67
2021/09/13 09:42:04;;;;;;;4.43;4.03;;;;;;;21.60;77.45;98334.97;5151048;27;20208;-67
2021/09/13 09:44:32;;;;;;;4.20;3.70;;;;;;;21.70;75.92;98345.59;5142210;27;20580;-67
2021/09/13 09:47:03;;;;;;;4.33;3.93;;;;;;;21.73;76.43;98346.09;5144622;27;20237;-67
2021/09/13 09:49:41;;;;;;;3.57;3.27;;;;;;;21.77;77.66;98347.41;5148438;27;20565;-67
2021/09/13 09:52:09;;;;;;;5.17;3.87;;;;;;;21.89;73.60;98351.41;5143351;27;20265;-67
2021/09/13 09:54:36;;;;;;;3.50;3.20;;;;;;;21.88;72.92;98347.06;5145971;27;20208;-67
2021/09/13 09:57:05;;;;;;;4.83;3.23;;;;;;;22.02;74.81;98349.06;5146977;27;20236;-67
2021/09/13 09:59:33;;;;;;;3.87;3.50;;;;;;;22.10;72.33;98351.72;5138867;27;20680;-67
2021/09/13 10:02:00;;;;;;;3.43;3.13;;;;;;;22.10;71.22;98353.56;5149002;27;20213;-67
2021/09/13 10:04:29;;;;;;;3.17;2.97;;;;;;;22.19;72.41;98358.75;5144050;27;20212;-67
2021/09/13 10:06:58;;;;;;;3.77;3.47;;;;;;;22.18;71.50;98346.31;5141715;27;20727;-67
2021/09/13 10:09:28;;;;;;;4.10;3.70;;;;;;;22.25;72.14;98343.78;5150306;27;20221;-67
2021/09/13 10:11:58;;;;;;;3.87;3.53;;;;;;;22.31;72.60;98346.59;5140893;27;20217;-67
2021/09/13 10:14:26;;;;;;;4.97;3.50;;;;;;;22.43;70.52;98342.53;5145440;27;20217;-67
2021/09/13 10:16:53;;;;;;;4.33;3.47;;;;;;;22.37;71.42;98340.50;5147041;27;20212;-67
2021/09/13 10:19:20;;;;;;;5.23;3.43;;;;;;;22.46;72.90;98333.28;5150403;27;20209;-68
2021/09/13 10:21:47;;;;;;;4.87;4.07;;;;;;;22.61;72.21;98337.75;5140834;27;20211;-67
2021/09/13 10:24:16;;;;;;;3.53;3.23;;;;;;;22.71;70.54;98335.69;5152189;27;20223;-67
2021/09/13 10:26:48;;;;;;;3.93;3.63;;;;;;;22.74;69.37;98334.50;5153104;27;20231;-67
2021/09/13 10:29:23;;;;;;;5.00;4.50;;;;;;;22.76;68.82;98329.75;5153044;27;20585;-67
2021/09/13 10:32:07;;;;;;;4.97;3.70;;;;;;;22.71;72.35;98326.75;5151477;27;20662;-68
2021/09/13 10:34:36;;;;;;;4.07;3.63;;;;;;;22.80;72.30;98323.81;5153010;27;20223;-67
2021/09/13 10:37:09;;;;;;;3.83;3.47;;;;;;;22.84;72.50;98314.38;5152953;27;20212;-67
2021/09/13 10:40:04;;;;;;;3.83;3.53;;;;;;;22.96;73.02;98310.25;5151767;27;20211;-67
2021/09/13 10:42:40;;;;;;;4.10;3.70;;;;;;;22.89;68.73;98312.00;5127591;27;20245;-67
2021/09/13 10:45:10;;;;;;;4.63;3.43;;;;;;;23.00;70.87;98306.19;5142757;27;20215;-67
2021/09/13 10:47:38;;;;;;;5.37;4.10;;;;;;;23.15;69.56;98303.53;5154669;27;20236;-68
2021/09/13 10:50:25;;;;;;;4.20;3.50;;;;;;;23.23;71.70;98298.13;5157055;27;20209;-67
2021/09/13 10:52:53;;;;;;;4.40;4.00;;;;;;;23.38;69.49;98301.69;5153854;27;20216;-67
2021/09/13 10:55:26;;;;;;;5.03;3.30;;;;;;;23.41;68.31;98315.66;5149032;27;20206;-67
2021/09/13 10:58:03;;;;;;;4.37;3.97;;;;;;;23.41;68.22;98304.03;5156648;27;20667;-67
2021/09/13 11:00:55;;;;;;;4.03;3.47;;;;;;;23.29;68.44;98300.09;5156828;27;20216;-67
2021/09/13 11:03:48;;;;;;;4.90;3.50;;;;;;;23.48;73.35;98295.00;5155487;27;20257;-67
2021/09/13 11:06:26;;;;;;;3.97;3.67;;;;;;;23.52;69.63;98290.94;5156681;27;20582;-66
2021/09/13 11:08:54;;;;;;;7.07;3.80;;;;;;;23.56;68.56;98294.09;5143529;27;20216;-67
2021/09/13 11:11:25;;;;;;;5.93;3.90;;;;;;;23.55;66.72;98278.94;5152135;27;20636;-66
2021/09/13 11:13:58;;;;;;;5.33;3.77;;;;;;;23.60;68.84;98280.06;5146082;27;20259;-67
2021/09/13 11:16:25;;;;;;;5.00;3.90;;;;;;;23.68;70.76;98280.00;5145286;27;20209;-67
2021/09/13 11:18:53;;;;;;;3.60;3.30;;;;;;;23.78;70.23;98277.84;5154071;27;20667;-67
2021/09/13 11:21:23;;;;;;;4.20;3.80;;;;;;;23.90;67.08;98276.41;5141935;27;20679;-67
2021/09/13 11:23:52;;;;;;;4.50;4.03;;;;;;;23.95;67.05;98271.28;5148796;27;20209;-67
2021/09/13 11:26:20;;;;;;;4.10;3.67;;;;;;;24.06;67.99;98270.81;5150542;27;20219;-67
2021/09/13 11:28:54;;;;;;;3.70;3.40;;;;;;;24.12;67.48;98264.66;5146173;27;20255;-67
2021/09/13 11:31:30;;;;;;;3.80;3.50;;;;;;;24.12;68.04;98266.53;5156286;27;20220;-67